createdAt,value
2018-11-27T00:00:23.455Z,1012.60
2018-11-27T00:01:23.440Z,1012.69
2018-11-27T00:02:23.436Z,1012.66
2018-11-27T00:03:23.410Z,1012.70
2018-11-27T00:04:23.397Z,1012.71
2018-11-27T00:05:23.416Z,1012.69
2018-11-27T00:06:23.376Z,1012.70
2018-11-27T00:07:23.363Z,1012.73
2018-11-27T00:08:23.354Z,1012.72
2018-11-27T00:09:23.353Z,1012.65
2018-11-27T00:10:23.331Z,1012.71
2018-11-27T00:11:23.333Z,1012.72
2018-11-27T00:12:23.310Z,1012.72
2018-11-27T00:13:23.294Z,1012.72
2018-11-27T00:14:23.284Z,1012.71
2018-11-27T00:15:23.277Z,1012.73
2018-11-27T00:16:23.305Z,1012.72
2018-11-27T00:17:23.248Z,1012.70
2018-11-27T00:18:23.236Z,1012.71
2018-11-27T00:19:23.227Z,1012.75
2018-11-27T00:20:23.217Z,1012.69
2018-11-27T00:21:23.226Z,1012.76
2018-11-27T00:22:23.192Z,1012.74
2018-11-27T00:23:23.186Z,1012.77
2018-11-27T00:24:23.170Z,1012.81
2018-11-27T00:25:23.156Z,1012.80
2018-11-27T00:26:23.161Z,1012.76
2018-11-27T00:27:23.137Z,1012.80
2018-11-27T00:28:23.124Z,1012.82
2018-11-27T00:29:23.111Z,1012.79
2018-11-27T00:30:23.106Z,1012.77
2018-11-27T00:31:23.101Z,1012.78
2018-11-27T00:32:23.081Z,1012.77
2018-11-27T00:33:23.069Z,1012.76
2018-11-27T00:34:23.057Z,1012.76
2018-11-27T00:35:23.046Z,1012.81
2018-11-27T00:36:23.046Z,1012.77
2018-11-27T00:37:23.023Z,1012.81
2018-11-27T00:38:23.011Z,1012.80
2018-11-27T00:39:23.000Z,1012.82
2018-11-27T00:40:30.017Z,1012.87
2018-11-27T00:41:23.001Z,1012.91
2018-11-27T00:42:22.971Z,1012.95
2018-11-27T00:43:22.964Z,1012.97
2018-11-27T00:44:22.944Z,1012.99
2018-11-27T00:45:22.933Z,1012.94
2018-11-27T00:46:22.931Z,1012.98
2018-11-27T00:47:22.911Z,1012.97
2018-11-27T00:48:22.898Z,1012.97
2018-11-27T00:49:22.906Z,1013.06
2018-11-27T00:50:22.874Z,1012.98
2018-11-27T00:51:22.877Z,1013.01
2018-11-27T00:52:22.855Z,1013.00
2018-11-27T00:53:22.889Z,1012.96
2018-11-27T00:54:22.835Z,1013.02
2018-11-27T00:55:22.818Z,1013.03
2018-11-27T00:56:22.818Z,1013.01
2018-11-27T00:57:22.797Z,1013.02
2018-11-27T00:58:22.784Z,1013.02
2018-11-27T00:59:22.798Z,1013.04
2018-11-27T01:00:22.766Z,1013.01
2018-11-27T01:01:22.761Z,1012.98
2018-11-27T01:02:22.741Z,1013.00
2018-11-27T01:03:22.727Z,1013.02
2018-11-27T01:04:22.722Z,1013.02
2018-11-27T01:05:22.711Z,1013.05
2018-11-27T01:06:22.718Z,1013.07
2018-11-27T01:07:22.683Z,1013.10
2018-11-27T01:08:22.671Z,1013.07
2018-11-27T01:09:22.662Z,1013.12
2018-11-27T01:10:22.651Z,1013.10
2018-11-27T01:11:22.652Z,1013.07
2018-11-27T01:12:22.629Z,1013.12
2018-11-27T01:13:22.623Z,1013.14
2018-11-27T01:14:22.606Z,1013.10
2018-11-27T01:15:22.600Z,1013.16
2018-11-27T01:16:22.600Z,1013.14
2018-11-27T01:17:22.580Z,1013.14
2018-11-27T01:18:22.560Z,1013.14
2018-11-27T01:19:22.551Z,1013.18
2018-11-27T01:20:22.539Z,1013.14
2018-11-27T01:21:22.543Z,1013.14
2018-11-27T01:22:22.530Z,1013.16
2018-11-27T01:23:22.533Z,1013.15
2018-11-27T01:24:22.498Z,1013.16
2018-11-27T01:25:22.512Z,1013.17
2018-11-27T01:26:22.553Z,1013.15
2018-11-27T01:27:22.491Z,1013.16
2018-11-27T01:28:22.489Z,1013.17
2018-11-27T01:29:22.453Z,1013.18
2018-11-27T01:30:22.430Z,1013.15
2018-11-27T01:31:22.455Z,1013.17
2018-11-27T01:32:22.857Z,1013.19
2018-11-27T01:33:22.417Z,1013.18
2018-11-27T01:34:22.394Z,1013.19
2018-11-27T01:35:22.393Z,1013.18
2018-11-27T01:36:22.362Z,1013.23
2018-11-27T01:37:22.393Z,1013.20
2018-11-27T01:38:22.349Z,1013.22
2018-11-27T01:39:22.331Z,1013.19
2018-11-27T01:40:22.319Z,1013.18
2018-11-27T01:41:22.308Z,1013.19
2018-11-27T01:42:22.327Z,1013.26
2018-11-27T01:43:22.283Z,1013.20
2018-11-27T01:44:22.287Z,1013.18
2018-11-27T01:45:22.273Z,1013.21
2018-11-27T01:46:22.277Z,1013.23
2018-11-27T01:47:22.258Z,1013.16
2018-11-27T01:48:22.236Z,1013.20
2018-11-27T01:49:22.237Z,1013.20
2018-11-27T01:50:22.226Z,1013.18
2018-11-27T01:51:22.191Z,1013.17
2018-11-27T01:52:22.200Z,1013.21
2018-11-27T01:53:22.189Z,1013.20
2018-11-27T01:54:22.177Z,1013.22
2018-11-27T01:55:22.160Z,1013.23
2018-11-27T01:56:22.144Z,1013.24
2018-11-27T01:57:22.150Z,1013.27
2018-11-27T01:58:22.115Z,1013.25
2018-11-27T01:59:22.102Z,1013.22
2018-11-27T02:00:22.088Z,1013.27
2018-11-27T02:01:22.096Z,1013.24
2018-11-27T02:02:22.105Z,1013.24
2018-11-27T02:03:22.057Z,1013.26
2018-11-27T02:04:22.047Z,1013.31
2018-11-27T02:05:22.032Z,1013.22
2018-11-27T02:06:22.026Z,1013.30
2018-11-27T02:07:22.022Z,1013.21
2018-11-27T02:08:22.024Z,1013.24
2018-11-27T02:09:22.007Z,1013.25
2018-11-27T02:10:21.983Z,1013.22
2018-11-27T02:11:21.972Z,1013.21
2018-11-27T02:12:22.364Z,1013.21
2018-11-27T02:13:21.959Z,1013.24
2018-11-27T02:14:21.967Z,1013.19
2018-11-27T02:15:21.928Z,1013.24
2018-11-27T02:16:21.910Z,1013.25
2018-11-27T02:17:21.916Z,1013.31
2018-11-27T02:18:21.906Z,1013.30
2018-11-27T02:19:21.887Z,1013.24
2018-11-27T02:20:21.872Z,1013.29
2018-11-27T02:21:21.851Z,1013.25
2018-11-27T02:22:21.861Z,1013.23
2018-11-27T02:23:21.865Z,1013.25
2018-11-27T02:24:21.828Z,1013.27
2018-11-27T02:26:38.509Z,1013.26
2018-11-27T02:27:38.510Z,1013.28
2018-11-27T02:28:38.480Z,1013.32
2018-11-27T02:29:38.467Z,1013.30
2018-11-27T02:30:38.467Z,1013.31
2018-11-27T02:31:38.443Z,1013.34
2018-11-27T02:32:38.443Z,1013.32
2018-11-27T02:33:38.421Z,1013.31
2018-11-27T02:34:38.410Z,1013.32
2018-11-27T02:35:38.401Z,1013.32
2018-11-27T02:36:38.391Z,1013.34
2018-11-27T02:37:38.392Z,1013.36
2018-11-27T02:38:38.367Z,1013.36
2018-11-27T02:39:38.354Z,1013.38
2018-11-27T02:40:38.342Z,1013.43
2018-11-27T02:41:38.332Z,1013.41
2018-11-27T02:42:38.334Z,1013.43
2018-11-27T02:43:38.311Z,1013.44
2018-11-27T02:44:38.297Z,1013.47
2018-11-27T02:45:38.287Z,1013.51
2018-11-27T02:46:38.279Z,1013.50
2018-11-27T02:47:38.275Z,1013.48
2018-11-27T02:48:38.252Z,1013.52
2018-11-27T02:49:38.242Z,1013.55
2018-11-27T02:50:38.232Z,1013.52
2018-11-27T02:51:38.223Z,1013.57
2018-11-27T02:52:38.223Z,1013.56
2018-11-27T02:53:38.201Z,1013.58
2018-11-27T02:54:38.191Z,1013.57
2018-11-27T02:55:38.181Z,1013.56
2018-11-27T02:56:38.168Z,1013.58
2018-11-27T02:57:38.173Z,1013.55
2018-11-27T02:58:50.190Z,1013.63
2018-11-27T02:59:38.146Z,1013.61
2018-11-27T03:00:38.126Z,1013.57
2018-11-27T03:01:46.147Z,1013.60
2018-11-27T03:02:38.128Z,1013.59
2018-11-27T03:03:38.097Z,1013.61
2018-11-27T03:04:38.080Z,1013.60
2018-11-27T03:05:38.081Z,1013.64
2018-11-27T03:06:38.060Z,1013.60
2018-11-27T03:07:38.056Z,1013.61
2018-11-27T03:08:38.053Z,1013.64
2018-11-27T03:09:38.025Z,1013.63
2018-11-27T03:10:50.027Z,1013.54
2018-11-27T03:11:38.020Z,1013.57
2018-11-27T03:12:38.011Z,1013.64
2018-11-27T03:13:37.981Z,1013.64
2018-11-27T03:14:46.010Z,1013.68
2018-11-27T03:15:48.611Z,1013.66
2018-11-27T03:16:37.955Z,1013.66
2018-11-27T03:17:46.588Z,1013.69
2018-11-27T03:18:37.938Z,1013.68
2018-11-27T03:19:37.923Z,1013.65
2018-11-27T03:20:45.576Z,1013.71
2018-11-27T03:21:37.902Z,1013.66
2018-11-27T03:22:37.916Z,1013.67
2018-11-27T03:23:37.883Z,1013.67
2018-11-27T03:24:37.860Z,1013.68
2018-11-27T03:25:49.903Z,1013.64
2018-11-27T03:26:37.848Z,1013.66
2018-11-27T03:27:47.864Z,1013.66
2018-11-27T03:28:37.837Z,1013.62
2018-11-27T03:29:44.841Z,1013.67
2018-11-27T03:30:47.054Z,1013.62
2018-11-27T03:31:44.837Z,1013.69
2018-11-27T03:32:37.778Z,1013.68
2018-11-27T03:33:37.802Z,1013.69
2018-11-27T03:34:38.640Z,1013.72
2018-11-27T03:35:37.741Z,1013.70
2018-11-27T03:36:37.729Z,1013.75
2018-11-27T03:37:44.770Z,1013.82
2018-11-27T03:38:44.762Z,1013.80
2018-11-27T03:39:37.700Z,1013.83
2018-11-27T03:40:38.210Z,1013.85
2018-11-27T03:41:37.672Z,1013.85
2018-11-27T03:42:37.663Z,1013.90
2018-11-27T03:43:37.669Z,1013.91
2018-11-27T03:44:37.641Z,1013.93
2018-11-27T03:45:37.634Z,1013.91
2018-11-27T03:46:37.622Z,1013.94
2018-11-27T03:47:44.654Z,1013.92
2018-11-27T03:48:37.613Z,1013.91
2018-11-27T03:49:37.591Z,1013.92
2018-11-27T03:50:37.580Z,1013.90
2018-11-27T03:51:37.596Z,1013.89
2018-11-27T03:52:37.558Z,1013.94
2018-11-27T03:53:37.554Z,1013.95
2018-11-27T03:54:37.534Z,1013.94
2018-11-27T03:55:37.519Z,1013.89
2018-11-27T03:56:37.521Z,1013.95
2018-11-27T03:57:38.246Z,1013.91
2018-11-27T03:58:37.499Z,1013.94
2018-11-27T03:59:37.478Z,1013.98
2018-11-27T04:00:37.467Z,1013.95
2018-11-27T04:01:37.457Z,1013.95
2018-11-27T04:02:37.447Z,1013.97
2018-11-27T04:03:37.447Z,1013.97
2018-11-27T04:04:37.422Z,1013.95
2018-11-27T04:05:37.426Z,1013.99
2018-11-27T04:06:37.403Z,1013.96
2018-11-27T04:07:37.388Z,1013.97
2018-11-27T04:08:37.398Z,1013.96
2018-11-27T04:09:37.371Z,1013.96
2018-11-27T04:10:37.360Z,1013.96
2018-11-27T04:11:37.358Z,1013.97
2018-11-27T04:12:37.337Z,1013.97
2018-11-27T04:13:44.369Z,1013.94
2018-11-27T04:14:37.338Z,1013.98
2018-11-27T04:15:44.330Z,1014.03
2018-11-27T04:16:37.293Z,1014.00
2018-11-27T04:17:37.281Z,1013.92
2018-11-27T04:18:37.287Z,1014.00
2018-11-27T04:19:37.260Z,1014.01
2018-11-27T04:20:37.250Z,1014.01
2018-11-27T04:21:37.239Z,1014.00
2018-11-27T04:22:37.225Z,1014.02
2018-11-27T04:23:37.233Z,1014.06
2018-11-27T04:24:37.218Z,1014.04
2018-11-27T04:25:37.199Z,1014.03
2018-11-27T04:26:37.185Z,1014.09
2018-11-27T04:27:37.171Z,1014.03
2018-11-27T04:28:37.174Z,1014.07
2018-11-27T04:29:37.152Z,1014.04
2018-11-27T04:30:37.138Z,1014.09
2018-11-27T04:31:37.821Z,1014.10
2018-11-27T04:32:37.121Z,1014.15
2018-11-27T04:33:37.118Z,1014.12
2018-11-27T04:34:37.098Z,1014.12
2018-11-27T04:35:37.086Z,1014.14
2018-11-27T04:36:37.079Z,1014.13
2018-11-27T04:37:37.065Z,1014.17
2018-11-27T04:38:37.074Z,1014.15
2018-11-27T04:39:37.042Z,1014.19
2018-11-27T04:40:37.031Z,1014.15
2018-11-27T04:41:37.017Z,1014.20
2018-11-27T04:42:37.017Z,1014.18
2018-11-27T04:43:37.018Z,1014.21
2018-11-27T04:44:36.984Z,1014.18
2018-11-27T04:45:36.974Z,1014.15
2018-11-27T04:46:36.971Z,1014.17
2018-11-27T04:47:36.955Z,1014.15
2018-11-27T04:48:36.958Z,1014.18
2018-11-27T04:49:36.937Z,1014.20
2018-11-27T04:50:36.919Z,1014.22
2018-11-27T04:51:36.910Z,1014.21
2018-11-27T04:52:36.899Z,1014.23
2018-11-27T04:53:36.886Z,1014.30
2018-11-27T04:54:36.889Z,1014.31
2018-11-27T04:55:36.867Z,1014.30
2018-11-27T04:56:36.853Z,1014.32
2018-11-27T04:57:36.845Z,1014.35
2018-11-27T04:58:36.837Z,1014.33
2018-11-27T04:59:36.841Z,1014.36
2018-11-27T05:00:36.810Z,1014.36
2018-11-27T05:01:36.798Z,1014.37
2018-11-27T05:02:36.791Z,1014.42
2018-11-27T05:03:36.779Z,1014.48
2018-11-27T05:04:36.778Z,1014.50
2018-11-27T05:05:36.761Z,1014.42
2018-11-27T05:06:36.754Z,1014.48
2018-11-27T05:07:36.757Z,1014.51
2018-11-27T05:08:36.722Z,1014.50
2018-11-27T05:09:36.723Z,1014.49
2018-11-27T05:10:43.748Z,1014.54
2018-11-27T05:11:36.698Z,1014.52
2018-11-27T05:12:36.680Z,1014.55
2018-11-27T05:13:36.667Z,1014.55
2018-11-27T05:14:36.673Z,1014.52
2018-11-27T05:15:36.647Z,1014.52
2018-11-27T05:16:36.634Z,1014.57
2018-11-27T05:17:36.622Z,1014.53
2018-11-27T05:18:36.613Z,1014.61
2018-11-27T05:19:36.611Z,1014.60
2018-11-27T05:20:36.591Z,1014.62
2018-11-27T05:21:36.581Z,1014.61
2018-11-27T05:22:36.571Z,1014.58
2018-11-27T05:23:36.564Z,1014.62
2018-11-27T05:24:36.556Z,1014.65
2018-11-27T05:25:36.537Z,1014.66
2018-11-27T05:26:36.526Z,1014.62
2018-11-27T05:27:36.523Z,1014.68
2018-11-27T05:28:36.511Z,1014.71
2018-11-27T05:29:36.507Z,1014.70
2018-11-27T05:30:36.483Z,1014.67
2018-11-27T05:31:36.470Z,1014.69
2018-11-27T05:32:36.462Z,1014.72
2018-11-27T05:33:36.449Z,1014.73
2018-11-27T05:34:36.451Z,1014.72
2018-11-27T05:35:36.426Z,1014.71
2018-11-27T05:36:36.416Z,1014.69
2018-11-27T05:37:36.403Z,1014.72
2018-11-27T05:38:36.392Z,1014.72
2018-11-27T05:39:36.395Z,1014.71
2018-11-27T05:40:36.374Z,1014.72
2018-11-27T05:41:36.361Z,1014.76
2018-11-27T05:42:36.349Z,1014.71
2018-11-27T05:43:36.342Z,1014.76
2018-11-27T05:44:36.344Z,1014.77
2018-11-27T05:45:36.326Z,1014.76
2018-11-27T05:46:36.305Z,1014.82
2018-11-27T05:47:36.292Z,1014.82
2018-11-27T05:48:36.281Z,1014.82
2018-11-27T05:49:36.283Z,1014.84
2018-11-27T05:50:36.261Z,1014.87
2018-11-27T05:51:36.260Z,1014.82
2018-11-27T05:52:36.238Z,1014.83
2018-11-27T05:53:36.226Z,1014.83
2018-11-27T05:54:36.228Z,1014.82
2018-11-27T05:55:36.206Z,1014.82
2018-11-27T05:56:36.203Z,1014.80
2018-11-27T05:57:36.190Z,1014.79
2018-11-27T05:58:36.178Z,1014.79
2018-11-27T05:59:36.181Z,1014.84
2018-11-27T06:00:36.157Z,1014.82
2018-11-27T06:01:36.151Z,1014.84
2018-11-27T06:02:36.135Z,1014.86
2018-11-27T06:03:36.121Z,1014.87
2018-11-27T06:04:36.122Z,1014.93
2018-11-27T06:05:36.095Z,1014.92
2018-11-27T06:06:36.086Z,1014.94
2018-11-27T06:07:36.078Z,1014.94
2018-11-27T06:08:36.070Z,1014.95
2018-11-27T06:09:36.064Z,1014.98
2018-11-27T06:10:36.043Z,1015.01
2018-11-27T06:11:36.035Z,1015.03
2018-11-27T06:12:36.020Z,1015.09
2018-11-27T06:13:36.011Z,1015.10
2018-11-27T06:14:36.015Z,1015.09
2018-11-27T06:15:35.987Z,1015.18
2018-11-27T06:16:35.980Z,1015.19
2018-11-27T06:17:35.968Z,1015.15
2018-11-27T06:18:35.958Z,1015.15
2018-11-27T06:19:35.958Z,1015.18
2018-11-27T06:20:35.933Z,1015.18
2018-11-27T06:21:35.971Z,1015.29
2018-11-27T06:22:36.858Z,1015.28
2018-11-27T06:23:35.899Z,1015.30
2018-11-27T06:24:35.922Z,1015.34
2018-11-27T06:25:35.887Z,1015.33
2018-11-27T06:26:35.866Z,1015.38
2018-11-27T06:27:35.855Z,1015.40
2018-11-27T06:28:35.847Z,1015.43
2018-11-27T06:29:35.833Z,1015.45
2018-11-27T06:30:35.843Z,1015.40
2018-11-27T06:31:35.812Z,1015.42
2018-11-27T06:32:35.803Z,1015.46
2018-11-27T06:33:35.790Z,1015.44
2018-11-27T06:34:35.779Z,1015.47
2018-11-27T06:35:35.783Z,1015.51
2018-11-27T06:36:35.759Z,1015.50
2018-11-27T06:37:35.757Z,1015.52
2018-11-27T06:38:35.737Z,1015.55
2018-11-27T06:39:35.727Z,1015.57
2018-11-27T06:40:35.727Z,1015.61
2018-11-27T06:41:35.704Z,1015.60
2018-11-27T06:42:35.697Z,1015.63
2018-11-27T06:43:35.681Z,1015.65
2018-11-27T06:44:35.673Z,1015.64
2018-11-27T06:45:35.670Z,1015.65
2018-11-27T06:46:35.646Z,1015.62
2018-11-27T06:47:35.637Z,1015.60
2018-11-27T06:48:35.627Z,1015.62
2018-11-27T06:49:35.614Z,1015.59
2018-11-27T06:50:35.611Z,1015.63
2018-11-27T06:51:35.596Z,1015.62
2018-11-27T06:52:35.621Z,1015.63
2018-11-27T06:53:35.569Z,1015.63
2018-11-27T06:54:35.570Z,1015.57
2018-11-27T06:55:35.558Z,1015.64
2018-11-27T06:56:35.540Z,1015.62
2018-11-27T06:57:35.526Z,1015.61
2018-11-27T06:58:35.516Z,1015.59
2018-11-27T06:59:35.507Z,1015.68
2018-11-27T07:00:35.511Z,1015.65
2018-11-27T07:01:35.482Z,1015.68
2018-11-27T07:02:35.472Z,1015.71
2018-11-27T07:03:35.462Z,1015.73
2018-11-27T07:04:35.454Z,1015.70
2018-11-27T07:05:35.450Z,1015.75
2018-11-27T07:06:35.428Z,1015.76
2018-11-27T07:07:35.417Z,1015.77
2018-11-27T07:08:35.408Z,1015.77
2018-11-27T07:09:35.398Z,1015.76
2018-11-27T07:10:35.397Z,1015.81
2018-11-27T07:11:35.378Z,1015.81
2018-11-27T07:12:35.365Z,1015.81
2018-11-27T07:13:35.353Z,1015.87
2018-11-27T07:14:35.340Z,1015.85
2018-11-27T07:15:35.351Z,1015.89
2018-11-27T07:16:35.325Z,1015.86
2018-11-27T07:17:35.322Z,1015.89
2018-11-27T07:18:35.297Z,1015.88
2018-11-27T07:19:35.291Z,1015.91
2018-11-27T07:20:35.286Z,1015.88
2018-11-27T07:21:35.269Z,1015.87
2018-11-27T07:22:35.257Z,1015.89
2018-11-27T07:23:35.242Z,1015.89
2018-11-27T07:24:35.235Z,1015.92
2018-11-27T07:25:35.232Z,1015.90
2018-11-27T07:26:35.210Z,1015.89
2018-11-27T07:27:35.199Z,1015.91
2018-11-27T07:28:35.196Z,1015.94
2018-11-27T07:29:35.179Z,1015.91
2018-11-27T07:30:35.178Z,1015.94
2018-11-27T07:31:35.155Z,1015.96
2018-11-27T07:32:35.144Z,1015.97
2018-11-27T07:33:35.133Z,1015.99
2018-11-27T07:34:35.135Z,1015.96
2018-11-27T07:35:35.124Z,1016.00
2018-11-27T07:36:35.101Z,1015.99
2018-11-27T07:37:35.092Z,1015.98
2018-11-27T07:38:35.080Z,1016.02
2018-11-27T07:39:35.067Z,1016.04
2018-11-27T07:40:35.090Z,1016.02
2018-11-27T07:41:35.045Z,1016.04
2018-11-27T07:42:35.035Z,1016.07
2018-11-27T07:43:35.025Z,1016.07
2018-11-27T07:44:35.015Z,1016.09
2018-11-27T07:45:35.004Z,1016.09
2018-11-27T07:46:35.010Z,1016.11
2018-11-27T07:47:34.979Z,1016.11
2018-11-27T07:48:34.968Z,1016.13
2018-11-27T07:49:34.958Z,1016.14
2018-11-27T07:50:34.946Z,1016.14
2018-11-27T07:51:34.961Z,1016.12
2018-11-27T07:52:34.928Z,1016.16
2018-11-27T07:53:34.915Z,1016.17
2018-11-27T07:54:34.904Z,1016.22
2018-11-27T07:55:34.893Z,1016.23
2018-11-27T07:56:34.895Z,1016.22
2018-11-27T07:57:34.874Z,1016.20
2018-11-27T07:58:34.862Z,1016.20
2018-11-27T07:59:34.850Z,1016.22
2018-11-27T08:00:34.848Z,1016.19
2018-11-27T08:01:34.845Z,1016.20
2018-11-27T08:02:34.819Z,1016.26
2018-11-27T08:03:34.806Z,1016.26
2018-11-27T08:04:34.795Z,1016.25
2018-11-27T08:05:34.783Z,1016.23
2018-11-27T08:06:34.791Z,1016.20
2018-11-27T08:07:34.766Z,1016.21
2018-11-27T08:08:34.751Z,1016.18
2018-11-27T08:09:34.739Z,1016.22
2018-11-27T08:10:34.729Z,1016.26
2018-11-27T08:11:34.725Z,1016.21
2018-11-27T08:12:34.708Z,1016.30
2018-11-27T08:13:34.704Z,1016.31
2018-11-27T08:14:34.695Z,1016.26
2018-11-27T08:15:34.680Z,1016.27
2018-11-27T08:16:34.676Z,1016.25
2018-11-27T08:17:34.654Z,1016.28
2018-11-27T08:18:34.640Z,1016.34
2018-11-27T08:19:34.638Z,1016.38
2018-11-27T08:20:34.618Z,1016.41
2018-11-27T08:21:34.617Z,1016.43
2018-11-27T08:22:34.595Z,1016.43
2018-11-27T08:23:34.590Z,1016.48
2018-11-27T08:24:34.577Z,1016.43
2018-11-27T08:25:34.564Z,1016.44
2018-11-27T08:26:34.569Z,1016.47
2018-11-27T08:27:34.540Z,1016.50
2018-11-27T08:28:34.528Z,1016.45
2018-11-27T08:29:34.518Z,1016.47
2018-11-27T08:30:34.513Z,1016.58
2018-11-27T08:31:34.509Z,1016.58
2018-11-27T08:32:34.486Z,1016.65
2018-11-27T08:33:34.474Z,1016.57
2018-11-27T08:34:34.462Z,1016.58
2018-11-27T08:35:34.461Z,1016.60
2018-11-27T08:36:34.453Z,1016.60
2018-11-27T08:37:34.431Z,1016.60
2018-11-27T08:38:34.422Z,1016.58
2018-11-27T08:39:34.408Z,1016.64
2018-11-27T08:40:34.401Z,1016.67
2018-11-27T08:41:40.397Z,1016.66
2018-11-27T08:42:35.375Z,1016.70
2018-11-27T08:43:34.364Z,1016.72
2018-11-27T08:44:34.358Z,1016.65
2018-11-27T08:45:34.342Z,1016.72
2018-11-27T08:46:34.349Z,1016.72
2018-11-27T08:47:34.323Z,1016.70
2018-11-27T08:48:35.113Z,1016.76
2018-11-27T08:49:34.297Z,1016.76
2018-11-27T08:50:34.288Z,1016.80
2018-11-27T08:51:34.288Z,1016.79
2018-11-27T08:52:34.280Z,1016.82
2018-11-27T08:53:34.256Z,1016.87
2018-11-27T08:54:34.245Z,1016.82
2018-11-27T08:55:34.232Z,1016.89
2018-11-27T08:56:34.222Z,1016.83
2018-11-27T08:57:34.220Z,1016.85
2018-11-27T08:58:34.200Z,1016.87
2018-11-27T08:59:34.194Z,1016.88
2018-11-27T09:00:34.173Z,1016.91
2018-11-27T09:01:34.175Z,1016.90
2018-11-27T09:02:34.152Z,1016.91
2018-11-27T09:03:34.142Z,1016.93
2018-11-27T09:04:34.132Z,1016.96
2018-11-27T09:05:34.136Z,1016.92
2018-11-27T09:06:34.121Z,1017.02
2018-11-27T09:07:34.102Z,1017.03
2018-11-27T09:08:34.085Z,1017.05
2018-11-27T09:09:34.082Z,1017.04
2018-11-27T09:10:34.067Z,1017.07
2018-11-27T09:11:34.102Z,1017.03
2018-11-27T09:12:34.042Z,1017.12
2018-11-27T09:13:34.030Z,1017.15
2018-11-27T09:14:34.019Z,1017.11
2018-11-27T09:15:34.012Z,1017.15
2018-11-27T09:16:34.003Z,1017.17
2018-11-27T09:17:34.010Z,1017.20
2018-11-27T09:18:33.973Z,1017.20
2018-11-27T09:19:33.962Z,1017.26
2018-11-27T09:20:33.975Z,1017.29
2018-11-27T09:21:33.957Z,1017.25
2018-11-27T09:22:33.952Z,1017.25
2018-11-27T09:23:33.918Z,1017.25
2018-11-27T09:24:33.906Z,1017.29
2018-11-27T09:25:33.893Z,1017.31
2018-11-27T09:26:33.888Z,1017.29
2018-11-27T09:27:33.894Z,1017.26
2018-11-27T09:28:33.866Z,1017.25
2018-11-27T09:29:33.850Z,1017.26
2018-11-27T09:30:33.838Z,1017.26
2018-11-27T09:31:33.831Z,1017.23
2018-11-27T09:32:33.835Z,1017.28
2018-11-27T09:33:33.812Z,1017.34
2018-11-27T09:34:33.796Z,1017.29
2018-11-27T09:35:33.785Z,1017.30
2018-11-27T09:36:33.773Z,1017.29
2018-11-27T09:37:33.772Z,1017.29
2018-11-27T09:38:33.749Z,1017.32
2018-11-27T09:39:33.743Z,1017.34
2018-11-27T09:40:33.727Z,1017.34
2018-11-27T09:41:33.714Z,1017.33
2018-11-27T09:42:33.716Z,1017.36
2018-11-27T09:43:33.694Z,1017.38
2018-11-27T09:44:33.690Z,1017.38
2018-11-27T09:45:33.670Z,1017.37
2018-11-27T09:46:33.661Z,1017.34
2018-11-27T09:47:33.659Z,1017.36
2018-11-27T09:48:33.638Z,1017.38
2018-11-27T09:49:33.638Z,1017.37
2018-11-27T09:50:33.617Z,1017.38
2018-11-27T09:51:33.604Z,1017.38
2018-11-27T09:52:33.608Z,1017.37
2018-11-27T09:53:34.132Z,1017.37
2018-11-27T09:54:33.573Z,1017.42
2018-11-27T09:55:33.562Z,1017.43
2018-11-27T09:56:33.549Z,1017.45
2018-11-27T09:57:33.548Z,1017.48
2018-11-27T09:58:33.526Z,1017.39
2018-11-27T09:59:33.527Z,1017.48
2018-11-27T10:00:33.509Z,1017.49
2018-11-27T10:01:33.493Z,1017.46
2018-11-27T10:02:33.496Z,1017.50
2018-11-27T10:03:33.471Z,1017.51
2018-11-27T10:04:33.460Z,1017.53
2018-11-27T10:05:33.457Z,1017.51
2018-11-27T10:06:33.476Z,1017.51
2018-11-27T10:07:33.442Z,1017.53
2018-11-27T10:08:33.431Z,1017.57
2018-11-27T10:09:33.411Z,1017.64
2018-11-27T10:10:33.402Z,1017.63
2018-11-27T10:11:33.381Z,1017.60
2018-11-27T10:12:34.361Z,1017.56
2018-11-27T10:13:33.360Z,1017.59
2018-11-27T10:14:33.346Z,1017.60
2018-11-27T10:15:33.367Z,1017.59
2018-11-27T10:16:33.859Z,1017.60
2018-11-27T10:17:35.360Z,1017.57
2018-11-27T10:18:33.830Z,1017.67
2018-11-27T10:19:35.417Z,1017.63
2018-11-27T10:20:33.831Z,1017.64
2018-11-27T10:21:34.350Z,1017.61
2018-11-27T10:22:34.338Z,1017.62
2018-11-27T10:23:33.259Z,1017.57
2018-11-27T10:24:33.253Z,1017.55
2018-11-27T10:25:33.923Z,1017.58
2018-11-27T10:26:33.872Z,1017.51
2018-11-27T10:27:37.340Z,1017.57
2018-11-27T10:28:33.204Z,1017.57
2018-11-27T10:29:33.313Z,1017.53
2018-11-27T10:30:33.271Z,1017.54
2018-11-27T10:31:33.928Z,1017.47
2018-11-27T10:32:36.019Z,1017.47
2018-11-27T10:33:34.511Z,1017.43
2018-11-27T10:34:35.066Z,1017.45
2018-11-27T10:35:33.131Z,1017.47
2018-11-27T10:36:33.108Z,1017.52
2018-11-27T10:37:33.107Z,1017.61
2018-11-27T10:38:33.089Z,1017.59
2018-11-27T10:39:33.867Z,1017.55
2018-11-27T10:40:33.067Z,1017.52
2018-11-27T10:41:33.060Z,1017.50
2018-11-27T10:42:33.066Z,1017.53
2018-11-27T10:45:04.701Z,1017.56
2018-11-27T10:46:04.672Z,1017.55
2018-11-27T10:47:04.671Z,1017.58
2018-11-27T10:49:56.664Z,1017.60
2018-11-27T10:50:56.462Z,1017.64
2018-11-27T10:52:03.564Z,1017.64
2018-11-27T10:54:23.419Z,1017.65
2018-11-27T10:55:23.042Z,1017.63
2018-11-27T10:58:22.555Z,1017.60
2018-11-27T10:59:33.122Z,1017.56
2018-11-27T11:01:42.206Z,1017.65
2018-11-27T11:02:49.248Z,1017.63
2018-11-27T11:10:31.005Z,1017.68
2018-11-27T11:12:57.002Z,1017.71
2018-11-27T11:16:07.394Z,1017.78
2018-11-27T11:17:07.378Z,1017.79
2018-11-27T11:19:27.122Z,1017.79
2018-11-27T11:21:57.280Z,1017.81
2018-11-27T11:24:57.311Z,1017.88
2018-11-27T11:26:09.852Z,1017.84
2018-11-27T11:27:19.685Z,1017.86
2018-11-27T11:29:26.385Z,1017.81
2018-11-27T11:30:37.951Z,1017.84
2018-11-27T11:31:26.354Z,1017.87
2018-11-27T11:32:38.368Z,1017.91
2018-11-27T11:33:26.348Z,1017.93
2018-11-27T11:34:26.319Z,1017.95
2018-11-27T11:35:41.840Z,1017.95
2018-11-27T11:36:26.298Z,1017.95
2018-11-27T11:37:26.280Z,1017.97
2018-11-27T11:38:26.281Z,1017.97
2018-11-27T11:39:26.265Z,1017.96
2018-11-27T11:40:26.306Z,1017.95
2018-11-27T11:41:31.158Z,1017.94
2018-11-27T11:42:27.220Z,1017.92
2018-11-27T11:43:26.221Z,1017.93
2018-11-27T11:44:26.200Z,1017.91
2018-11-27T11:45:26.186Z,1017.90
2018-11-27T11:46:26.179Z,1017.98
2018-11-27T11:47:26.176Z,1017.94
2018-11-27T11:48:26.172Z,1017.94
2018-11-27T11:49:26.148Z,1018.00
2018-11-27T11:50:26.132Z,1018.01
2018-11-27T11:51:26.121Z,1018.01
2018-11-27T11:52:38.154Z,1018.06
2018-11-27T11:53:26.118Z,1018.06
2018-11-27T11:54:39.864Z,1018.12
2018-11-27T11:55:39.218Z,1018.18
2018-11-27T11:56:40.128Z,1018.18
2018-11-27T11:57:41.861Z,1018.19
2018-11-27T11:58:26.058Z,1018.22
2018-11-27T11:59:34.585Z,1018.16
2018-11-27T12:00:26.020Z,1018.16
2018-11-27T12:01:39.331Z,1018.14
2018-11-27T12:02:37.867Z,1018.15
2018-11-27T12:03:38.018Z,1018.15
2018-11-27T12:04:25.983Z,1018.22
2018-11-27T12:05:25.997Z,1018.26
2018-11-27T12:06:37.980Z,1018.25
2018-11-27T12:07:34.722Z,1018.25
2018-11-27T12:08:34.885Z,1018.25
2018-11-27T12:09:25.923Z,1018.22
2018-11-27T12:10:36.930Z,1018.22
2018-11-27T12:11:38.927Z,1018.24
2018-11-27T12:12:33.508Z,1018.23
2018-11-27T12:13:38.954Z,1018.26
2018-11-27T12:14:34.470Z,1018.24
2018-11-27T12:15:39.178Z,1018.23
2018-11-27T12:16:39.846Z,1018.20
2018-11-27T12:17:38.868Z,1018.20
2018-11-27T12:18:39.085Z,1018.26
2018-11-27T12:19:38.935Z,1018.25
2018-11-27T12:20:26.808Z,1018.26
2018-11-27T12:21:38.415Z,1018.28
2018-11-27T12:22:40.307Z,1018.34
2018-11-27T12:23:25.761Z,1018.31
2018-11-27T12:24:25.765Z,1018.28
2018-11-27T12:25:32.785Z,1018.25
2018-11-27T12:26:32.785Z,1018.29
2018-11-27T12:27:32.773Z,1018.30
2018-11-27T12:29:57.369Z,1018.34
2018-11-27T12:31:10.294Z,1018.36
2018-11-27T12:31:57.336Z,1018.32
2018-11-27T12:33:09.361Z,1018.36